Time;durP1;ratioP1;P1;durP2;ratioP2;P2;SDS_P1;SDS_P2;PMS_P1;PMS_P2;Temp;Humidity;BMP_temperature;BMP_pressure;BME280_temperature;BME280_humidity;BME280_pressure;Samples;Min_cycle;Max_cycle;Signal;HPM_P1;HPM_P2
2024/01/03 00:01:26;;;;;;;1.03;1.03;;;17.00;68.20;;;;;;5058975;28;43962;-72
2024/01/03 00:03:59;;;;;;;1.10;1.10;;;17.00;68.20;;;;;;5065867;28;43876;-70
2024/01/03 00:06:32;;;;;;;0.87;0.87;;;16.90;68.30;;;;;;5055233;28;43336;-71
2024/01/03 00:09:00;;;;;;;1.00;1.00;;;16.90;68.30;;;;;;5071997;28;43411;-71
2024/01/03 00:11:29;;;;;;;0.97;0.97;;;16.90;68.30;;;;;;5059485;28;43471;-71
2024/01/03 00:14:05;;;;;;;0.80;0.80;;;16.90;68.30;;;;;;5057960;28;43926;-71
2024/01/03 00:16:34;;;;;;;1.10;1.10;;;16.90;68.40;;;;;;5063923;28;43526;-71
2024/01/03 00:19:04;;;;;;;0.80;0.80;;;16.90;68.50;;;;;;5053394;28;43424;-71
2024/01/03 00:21:32;;;;;;;1.10;1.10;;;16.90;68.60;;;;;;5052370;28;43950;-71
2024/01/03 00:24:05;;;;;;;1.00;1.00;;;16.80;68.50;;;;;;5053416;28;43703;-71
2024/01/03 00:26:34;;;;;;;0.80;0.80;;;16.80;68.50;;;;;;5054480;28;43480;-71
2024/01/03 00:29:03;;;;;;;1.10;1.10;;;16.90;68.40;;;;;;5053358;28;43450;-71
2024/01/03 00:31:37;;;;;;;1.00;1.00;;;17.00;68.20;;;;;;5054093;28;43402;-70
2024/01/03 00:34:19;;;;;;;1.13;1.00;;;17.00;68.20;;;;;;5051863;28;45765;-71
2024/01/03 00:36:47;;;;;;;0.90;0.90;;;16.90;68.20;;;;;;5066435;28;44957;-71
2024/01/03 00:39:15;;;;;;;0.80;0.80;;;16.90;68.30;;;;;;5051765;28;43465;-71
2024/01/03 00:41:43;;;;;;;1.13;1.07;;;16.90;68.30;;;;;;5048580;28;43590;-71
2024/01/03 00:44:11;;;;;;;1.10;1.10;;;16.90;68.30;;;;;;5058113;28;45971;-71
2024/01/03 00:46:39;;;;;;;0.90;0.90;;;16.90;68.40;;;;;;5059538;28;44879;-71
2024/01/03 00:49:09;;;;;;;1.00;1.00;;;16.90;68.50;;;;;;5053862;28;43520;-71
2024/01/03 00:51:42;;;;;;;0.93;0.93;;;16.90;68.60;;;;;;5050818;28;43481;-71
2024/01/03 00:54:10;;;;;;;1.23;1.23;;;16.80;68.60;;;;;;5053273;28;46037;-71
2024/01/03 00:56:38;;;;;;;1.17;1.17;;;16.80;68.60;;;;;;5056599;28;46190;-70
2024/01/03 00:59:06;;;;;;;1.03;1.03;;;16.80;68.50;;;;;;5060148;28;43406;-72
2024/01/03 01:01:34;;;;;;;1.10;1.10;;;16.90;68.40;;;;;;5048652;28;43588;-71
2024/01/03 01:04:02;;;;;;;1.10;1.10;;;16.90;68.10;;;;;;5047706;28;45715;-71
2024/01/03 01:06:32;;;;;;;0.80;0.80;;;16.90;68.10;;;;;;5060353;28;45150;-71
2024/01/03 01:09:03;;;;;;;0.90;0.90;;;16.90;68.30;;;;;;5061074;28;43371;-71
2024/01/03 01:11:32;;;;;;;1.10;1.10;;;16.90;68.30;;;;;;5053853;28;43382;-71
2024/01/03 01:14:00;;;;;;;1.00;1.00;;;16.90;68.40;;;;;;5054448;28;46019;-71
2024/01/03 01:16:28;;;;;;;1.10;1.10;;;16.90;68.30;;;;;;5053346;28;44662;-71
2024/01/03 01:18:56;;;;;;;1.00;1.00;;;16.90;68.50;;;;;;5050664;28;43359;-71
2024/01/03 01:21:24;;;;;;;1.00;1.00;;;16.90;68.60;;;;;;5056018;28;43513;-71
2024/01/03 01:23:53;;;;;;;1.07;0.97;;;16.90;68.70;;;;;;5051075;28;45257;-71
2024/01/03 01:26:22;;;;;;;2.13;1.07;;;16.80;68.60;;;;;;5060414;28;43399;-71
2024/01/03 01:28:50;;;;;;;1.20;1.20;;;16.80;68.60;;;;;;5052513;28;43527;-71
2024/01/03 01:31:18;;;;;;;1.07;1.07;;;16.80;68.50;;;;;;5053808;28;43451;-71
2024/01/03 01:33:46;;;;;;;0.83;0.83;;;16.80;68.60;;;;;;5054883;28;45365;-71
2024/01/03 01:36:15;;;;;;;1.10;1.10;;;16.80;68.70;;;;;;5056434;28;43452;-71
2024/01/03 01:38:44;;;;;;;1.13;0.80;;;16.80;68.70;;;;;;5052517;28;43502;-71
2024/01/03 01:41:13;;;;;;;1.10;1.10;;;16.80;68.70;;;;;;5057409;28;43572;-71
2024/01/03 01:43:41;;;;;;;1.20;1.10;;;16.80;68.80;;;;;;5061054;28;45811;-70
2024/01/03 01:46:09;;;;;;;1.40;1.40;;;16.80;68.70;;;;;;5056950;28;44595;-71
2024/01/03 01:48:38;;;;;;;1.17;1.17;;;16.90;68.60;;;;;;5050471;28;43499;-71
2024/01/03 01:51:06;;;;;;;0.90;0.90;;;17.00;68.30;;;;;;5054357;28;43502;-71
2024/01/03 01:53:35;;;;;;;1.17;1.17;;;17.10;68.00;;;;;;5052901;28;45602;-71
2024/01/03 01:56:03;;;;;;;1.20;1.20;;;17.10;67.80;;;;;;5057741;28;43436;-71
2024/01/03 01:58:32;;;;;;;1.10;1.10;;;17.10;67.90;;;;;;5056713;28;44036;-71
2024/01/03 02:01:00;;;;;;;1.40;1.30;;;17.00;67.90;;;;;;5063143;28;43424;-71
2024/01/03 02:03:28;;;;;;;1.07;1.07;;;17.00;67.90;;;;;;5060356;28;46213;-73
2024/01/03 02:05:56;;;;;;;1.07;1.07;;;17.00;68.00;;;;;;5064343;28;44030;-70
2024/01/03 02:08:25;;;;;;;1.00;1.00;;;17.00;68.10;;;;;;5063366;28;44063;-71
2024/01/03 02:10:53;;;;;;;0.90;0.90;;;16.90;68.20;;;;;;5067875;27;43490;-70
2024/01/03 02:13:21;;;;;;;1.57;1.00;;;16.90;68.30;;;;;;5068157;28;45294;-70
2024/01/03 02:15:51;;;;;;;1.20;1.20;;;16.90;68.50;;;;;;5069424;28;44704;-70
2024/01/03 02:18:19;;;;;;;0.90;0.90;;;16.90;68.50;;;;;;5065701;28;43717;-70
2024/01/03 02:20:47;;;;;;;1.00;1.00;;;16.90;68.60;;;;;;5067743;28;43372;-70
2024/01/03 02:23:17;;;;;;;0.97;0.97;;;16.90;68.60;;;;;;5065825;28;43956;-70
2024/01/03 02:25:45;;;;;;;1.00;1.00;;;16.80;68.50;;;;;;5060887;28;44765;-70
2024/01/03 02:28:13;;;;;;;0.97;0.97;;;16.80;68.60;;;;;;5080604;28;43385;-70
2024/01/03 02:30:44;;;;;;;2.90;1.03;;;16.80;68.70;;;;;;5063968;28;43531;-70
2024/01/03 02:33:12;;;;;;;1.20;1.20;;;16.80;68.70;;;;;;5065024;28;44035;-70
2024/01/03 02:35:41;;;;;;;1.20;1.20;;;16.80;68.60;;;;;;5061912;28;43487;-70
2024/01/03 02:38:09;;;;;;;1.30;1.20;;;16.80;68.70;;;;;;5067549;28;43401;-70
2024/01/03 02:40:39;;;;;;;1.00;1.00;;;16.80;68.70;;;;;;5065660;28;43439;-70
2024/01/03 02:43:07;;;;;;;0.90;0.90;;;16.80;68.80;;;;;;5067772;28;43626;-70
2024/01/03 02:45:35;;;;;;;1.10;1.10;;;16.80;68.80;;;;;;5075962;28;43450;-70
2024/01/03 02:48:03;;;;;;;1.00;1.00;;;16.80;68.80;;;;;;5069596;28;43407;-70
2024/01/03 02:50:31;;;;;;;1.23;1.23;;;16.80;68.80;;;;;;5073802;28;43407;-70
2024/01/03 02:53:00;;;;;;;1.03;1.03;;;16.80;68.60;;;;;;5064382;28;44060;-70
2024/01/03 02:55:28;;;;;;;1.07;1.07;;;16.90;68.30;;;;;;5067899;28;43454;-70
2024/01/03 02:57:57;;;;;;;1.20;1.10;;;17.00;68.10;;;;;;5061229;28;43379;-70
2024/01/03 03:00:25;;;;;;;1.00;1.00;;;17.00;68.10;;;;;;5072332;28;43434;-70
2024/01/03 03:02:53;;;;;;;1.37;1.23;;;17.00;68.30;;;;;;5065563;28;43922;-70
2024/01/03 03:05:21;;;;;;;1.30;1.30;;;16.90;68.20;;;;;;5063516;28;45008;-71
2024/01/03 03:07:49;;;;;;;1.00;1.00;;;16.90;68.10;;;;;;5065407;28;43428;-70
2024/01/03 03:10:17;;;;;;;1.00;1.00;;;16.90;68.30;;;;;;5061698;28;43427;-70
2024/01/03 03:12:45;;;;;;;1.10;1.10;;;16.90;68.40;;;;;;5061809;28;43623;-70
2024/01/03 03:15:15;;;;;;;1.00;1.00;;;16.90;68.50;;;;;;5074340;28;44228;-70
2024/01/03 03:17:43;;;;;;;1.23;1.20;;;16.80;68.50;;;;;;5053011;28;43408;-72
2024/01/03 03:20:11;;;;;;;1.40;1.40;;;16.80;68.60;;;;;;5060026;28;43348;-72
2024/01/03 03:22:40;;;;;;;1.30;1.20;;;16.80;68.60;;;;;;5058817;28;43814;-72
2024/01/03 03:25:08;;;;;;;0.90;0.90;;;16.80;68.60;;;;;;5061663;28;43414;-72
2024/01/03 03:27:36;;;;;;;0.90;0.90;;;16.80;68.60;;;;;;5059377;28;43391;-71
2024/01/03 03:30:05;;;;;;;0.97;0.97;;;16.80;68.80;;;;;;5057627;28;43388;-72
2024/01/03 03:32:34;;;;;;;1.20;1.20;;;16.80;68.80;;;;;;5057646;28;43876;-72
2024/01/03 03:35:03;;;;;;;1.10;1.10;;;16.80;68.80;;;;;;5054846;28;45046;-72
2024/01/03 03:37:31;;;;;;;1.10;1.10;;;16.80;68.80;;;;;;5054275;28;43509;-72
2024/01/03 03:39:59;;;;;;;1.10;1.10;;;16.80;68.70;;;;;;5057826;28;44164;-71
2024/01/03 03:42:27;;;;;;;1.37;1.20;;;16.90;68.50;;;;;;5062566;28;44102;-71
2024/01/03 03:44:55;;;;;;;1.00;1.00;;;17.00;68.10;;;;;;5067346;28;43516;-72
2024/01/03 03:47:23;;;;;;;1.40;1.30;;;17.00;68.00;;;;;;5056918;28;43404;-72
2024/01/03 03:49:53;;;;;;;0.93;0.93;;;17.00;68.10;;;;;;5060391;28;43932;-72
2024/01/03 03:52:21;;;;;;;1.10;1.10;;;17.00;68.30;;;;;;5055966;28;45420;-72
2024/01/03 03:54:49;;;;;;;1.43;1.33;;;16.90;68.20;;;;;;5058116;28;43390;-71
2024/01/03 03:57:17;;;;;;;1.13;1.13;;;16.90;68.10;;;;;;5063471;28;43434;-71
2024/01/03 03:59:45;;;;;;;1.10;1.00;;;16.90;68.30;;;;;;5053497;28;43427;-72
2024/01/03 04:02:13;;;;;;;0.90;0.90;;;16.90;68.40;;;;;;5054112;28;46120;-71
2024/01/03 04:04:41;;;;;;;1.30;1.30;;;16.90;68.50;;;;;;5061175;28;43971;-72
2024/01/03 04:07:10;;;;;;;1.27;1.27;;;16.80;68.60;;;;;;5052190;28;43930;-72
2024/01/03 04:09:38;;;;;;;1.57;1.47;;;16.80;68.60;;;;;;5062095;28;43600;-72
2024/01/03 04:12:07;;;;;;;1.07;1.07;;;16.80;68.50;;;;;;5061594;28;43610;-72
2024/01/03 04:14:37;;;;;;;1.00;1.00;;;16.80;68.70;;;;;;5057343;28;43364;-72
2024/01/03 04:17:05;;;;;;;0.93;0.93;;;16.80;68.80;;;;;;5052345;28;43424;-71
2024/01/03 04:19:35;;;;;;;0.90;0.90;;;16.80;68.80;;;;;;5053148;28;43745;-72
2024/01/03 04:22:03;;;;;;;1.30;1.20;;;16.80;68.80;;;;;;5056608;28;44070;-71
2024/01/03 04:24:32;;;;;;;1.20;1.20;;;16.70;68.80;;;;;;5061338;28;43344;-72
2024/01/03 04:27:00;;;;;;;1.17;1.17;;;16.80;68.80;;;;;;5074344;28;43395;-69
2024/01/03 04:29:28;;;;;;;1.10;1.10;;;16.80;68.80;;;;;;5076192;28;43426;-69
2024/01/03 04:31:57;;;;;;;0.90;0.90;;;16.80;68.80;;;;;;5077723;28;43617;-69
2024/01/03 04:34:25;;;;;;;1.20;1.20;;;16.80;68.90;;;;;;5078684;28;43328;-69
2024/01/03 04:36:53;;;;;;;1.00;1.00;;;16.80;68.90;;;;;;5076224;28;43415;-69
2024/01/03 04:39:21;;;;;;;1.00;1.00;;;16.80;69.00;;;;;;5086704;28;43398;-70
2024/01/03 04:41:50;;;;;;;1.00;1.00;;;16.80;69.00;;;;;;5079533;28;46086;-70
2024/01/03 04:44:18;;;;;;;1.17;1.07;;;16.80;69.00;;;;;;5076815;28;45113;-69
2024/01/03 04:46:46;;;;;;;1.10;1.10;;;16.80;69.00;;;;;;5080228;28;43431;-69
2024/01/03 04:49:14;;;;;;;1.30;1.20;;;16.70;68.90;;;;;;5082456;28;43428;-70
2024/01/03 04:51:42;;;;;;;1.30;1.20;;;16.80;68.90;;;;;;5080520;28;43583;-70
2024/01/03 04:54:10;;;;;;;1.10;1.10;;;16.80;68.80;;;;;;5077428;28;44422;-69
2024/01/03 04:56:38;;;;;;;1.17;1.17;;;16.90;68.70;;;;;;5073383;28;43412;-68
2024/01/03 04:59:08;;;;;;;1.30;1.30;;;17.00;68.40;;;;;;5088671;28;43578;-69
2024/01/03 05:01:36;;;;;;;1.20;1.20;;;17.10;68.00;;;;;;5076270;28;43777;-69
2024/01/03 05:04:04;;;;;;;1.07;1.07;;;17.30;67.60;;;;;;5078795;28;44759;-69
2024/01/03 05:06:32;;;;;;;1.30;1.20;;;17.50;67.20;;;;;;5074606;28;43439;-69
2024/01/03 05:09:00;;;;;;;1.30;1.30;;;17.60;66.60;;;;;;5075224;28;43367;-69
2024/01/03 05:11:29;;;;;;;1.23;1.13;;;17.70;66.70;;;;;;5081846;28;44036;-69
2024/01/03 05:13:57;;;;;;;1.10;1.10;;;17.80;65.80;;;;;;5081889;28;43404;-69
2024/01/03 05:16:26;;;;;;;1.30;1.20;;;17.90;65.40;;;;;;5077013;28;43423;-69
2024/01/03 05:18:54;;;;;;;1.50;1.40;;;18.00;65.10;;;;;;5074302;28;43365;-70
2024/01/03 05:21:22;;;;;;;1.17;1.17;;;18.10;64.90;;;;;;5075175;28;43845;-69
2024/01/03 05:23:50;;;;;;;1.13;1.13;;;18.10;64.80;;;;;;5082274;28;43358;-69
2024/01/03 05:26:18;;;;;;;1.40;1.40;;;18.10;64.90;;;;;;5081387;28;43382;-69
2024/01/03 05:28:46;;;;;;;1.33;1.23;;;18.00;65.10;;;;;;5080571;28;43463;-69
2024/01/03 05:31:14;;;;;;;1.20;1.20;;;17.80;65.40;;;;;;5077540;28;44925;-69
2024/01/03 05:33:44;;;;;;;1.43;1.33;;;17.70;65.90;;;;;;5076958;28;43394;-69
2024/01/03 05:36:12;;;;;;;1.40;1.33;;;17.60;66.60;;;;;;5075017;28;43485;-70
2024/01/03 05:38:40;;;;;;;1.40;1.30;;;17.50;66.70;;;;;;5071321;28;43359;-70
2024/01/03 05:41:08;;;;;;;1.20;1.10;;;17.40;66.60;;;;;;5065516;28;43949;-70
2024/01/03 05:43:36;;;;;;;1.57;1.50;;;17.30;66.90;;;;;;5060151;28;43450;-70
2024/01/03 05:46:05;;;;;;;1.40;1.30;;;17.30;67.20;;;;;;5064472;28;43508;-70
2024/01/03 05:48:33;;;;;;;1.33;1.30;;;17.20;67.40;;;;;;5068056;28;43634;-70
2024/01/03 05:51:02;;;;;;;1.13;1.13;;;17.20;67.90;;;;;;5066730;28;43669;-70
2024/01/03 05:53:30;;;;;;;1.20;1.20;;;17.10;67.60;;;;;;5061616;28;43427;-70
2024/01/03 05:55:59;;;;;;;1.07;0.90;;;17.10;67.80;;;;;;5059611;28;43488;-70
2024/01/03 05:58:27;;;;;;;1.00;1.00;;;17.10;67.90;;;;;;5060577;28;43490;-70
2024/01/03 06:00:55;;;;;;;1.27;1.10;;;17.00;68.00;;;;;;5065288;28;43750;-70
2024/01/03 06:03:23;;;;;;;1.30;1.30;;;17.00;68.10;;;;;;5061337;28;43425;-70
2024/01/03 06:05:51;;;;;;;1.10;1.10;;;17.00;69.00;;;;;;5064589;28;43597;-70
2024/01/03 06:08:20;;;;;;;1.10;1.10;;;17.00;68.30;;;;;;5063890;28;43452;-70
2024/01/03 06:10:48;;;;;;;1.50;1.40;;;17.10;68.00;;;;;;5067997;28;43611;-70
2024/01/03 06:13:16;;;;;;;1.10;1.10;;;17.20;67.70;;;;;;5060346;28;43684;-70
2024/01/03 06:15:44;;;;;;;1.00;1.00;;;17.20;67.60;;;;;;5070029;28;43503;-70
2024/01/03 06:18:12;;;;;;;1.20;1.20;;;17.20;67.70;;;;;;5065961;28;43343;-70
2024/01/03 06:20:41;;;;;;;0.90;0.90;;;17.10;67.90;;;;;;5065460;28;43895;-70
2024/01/03 06:23:09;;;;;;;1.30;1.30;;;17.10;67.90;;;;;;5057090;28;43449;-70
2024/01/03 06:25:38;;;;;;;0.97;0.97;;;17.10;67.90;;;;;;5063390;28;43469;-70
2024/01/03 06:28:06;;;;;;;1.00;1.00;;;17.10;68.00;;;;;;5068108;28;43487;-70
2024/01/03 06:30:35;;;;;;;0.90;0.90;;;17.10;68.10;;;;;;5060809;28;44302;-70
2024/01/03 06:33:03;;;;;;;1.00;1.00;;;17.00;68.10;;;;;;5054465;28;43593;-70
2024/01/03 06:35:32;;;;;;;1.13;1.13;;;17.00;68.30;;;;;;5060990;28;43446;-70
2024/01/03 06:38:03;;;;;;;1.40;1.40;;;17.00;68.50;;;;;;5064419;28;43557;-70
2024/01/03 06:40:31;;;;;;;1.10;1.10;;;17.00;68.30;;;;;;5058788;28;45400;-70
2024/01/03 06:43:01;;;;;;;1.10;1.10;;;17.10;68.10;;;;;;5069934;28;43473;-70
2024/01/03 06:45:29;;;;;;;0.83;0.83;;;17.10;67.90;;;;;;5067646;28;43455;-70
2024/01/03 06:47:57;;;;;;;1.00;1.00;;;17.10;67.90;;;;;;5063589;28;43460;-70
2024/01/03 06:50:25;;;;;;;1.00;1.00;;;17.10;68.00;;;;;;5062896;28;43611;-70
2024/01/03 06:52:53;;;;;;;0.90;0.90;;;17.00;68.10;;;;;;5064028;28;43343;-70
2024/01/03 06:55:21;;;;;;;1.00;1.00;;;17.10;68.10;;;;;;5058549;28;43299;-70
2024/01/03 06:57:50;;;;;;;1.03;0.93;;;17.00;68.80;;;;;;5061562;28;43379;-70
2024/01/03 07:00:20;;;;;;;1.23;1.23;;;17.00;68.20;;;;;;5061611;28;43701;-70
2024/01/03 07:02:48;;;;;;;0.60;0.60;;;17.00;68.30;;;;;;5059850;28;44362;-70
2024/01/03 07:05:17;;;;;;;1.10;1.10;;;17.00;68.40;;;;;;5066798;28;43422;-70
2024/01/03 07:07:45;;;;;;;1.10;1.10;;;16.90;68.50;;;;;;5068762;28;43409;-70
2024/01/03 07:10:13;;;;;;;1.10;1.10;;;16.90;68.40;;;;;;5067952;28;43918;-70
2024/01/03 07:12:41;;;;;;;1.07;1.07;;;16.90;68.50;;;;;;5063454;28;43468;-70
2024/01/03 07:15:10;;;;;;;1.00;1.00;;;16.90;68.50;;;;;;5069498;28;43384;-70
2024/01/03 07:17:39;;;;;;;1.00;1.00;;;16.90;68.60;;;;;;5068633;28;43482;-70
2024/01/03 07:20:08;;;;;;;1.00;0.90;;;16.90;68.60;;;;;;5065174;28;46093;-70
2024/01/03 07:22:36;;;;;;;1.20;1.20;;;16.90;68.70;;;;;;5065578;28;43407;-70
2024/01/03 07:25:05;;;;;;;1.40;1.30;;;16.90;68.80;;;;;;5067213;28;43461;-70
2024/01/03 07:27:33;;;;;;;1.10;1.10;;;17.00;68.70;;;;;;5055946;28;43552;-70
2024/01/03 07:30:01;;;;;;;1.30;1.20;;;17.10;68.40;;;;;;5065368;28;45717;-70
2024/01/03 07:32:29;;;;;;;0.90;0.90;;;17.10;68.10;;;;;;5061186;28;43410;-70
2024/01/03 07:34:59;;;;;;;1.13;1.10;;;17.10;68.20;;;;;;5061211;28;43343;-70
2024/01/03 07:37:28;;;;;;;0.90;0.90;;;17.00;68.10;;;;;;5062507;28;43434;-70
2024/01/03 07:39:56;;;;;;;0.80;0.80;;;17.00;68.30;;;;;;5064552;28;43603;-70
2024/01/03 07:42:24;;;;;;;0.97;0.97;;;17.00;68.30;;;;;;5068467;28;44914;-70
2024/01/03 07:44:52;;;;;;;0.97;0.97;;;17.00;68.30;;;;;;5065939;28;43598;-70
2024/01/03 07:47:20;;;;;;;0.90;0.90;;;17.00;68.30;;;;;;5065181;28;43411;-70
2024/01/03 07:49:48;;;;;;;1.10;1.10;;;16.90;68.40;;;;;;5060398;28;43846;-70
2024/01/03 07:52:18;;;;;;;1.20;0.93;;;17.00;68.60;;;;;;5065374;28;45064;-71
2024/01/03 07:54:46;;;;;;;1.10;1.10;;;16.90;68.70;;;;;;5064967;28;43458;-70
2024/01/03 07:57:14;;;;;;;1.00;1.00;;;16.90;68.60;;;;;;5074968;28;43475;-69
2024/01/03 07:59:44;;;;;;;1.03;1.00;;;16.90;68.60;;;;;;5087951;28;43906;-68
2024/01/03 08:02:13;;;;;;;0.90;0.90;;;16.90;68.70;;;;;;5083091;28;43374;-69
2024/01/03 08:04:42;;;;;;;0.70;0.70;;;16.90;69.40;;;;;;5081699;28;43342;-69
2024/01/03 08:07:10;;;;;;;1.17;1.13;;;16.90;68.80;;;;;;5081127;28;43602;-69
2024/01/03 08:09:39;;;;;;;1.00;1.00;;;16.80;68.80;;;;;;5089224;28;43627;-69
2024/01/03 08:12:08;;;;;;;1.30;1.30;;;16.90;68.90;;;;;;5072098;28;44419;-69
2024/01/03 08:14:36;;;;;;;1.00;1.00;;;17.00;68.70;;;;;;5088500;28;43451;-69
2024/01/03 08:17:05;;;;;;;1.10;1.10;;;17.00;68.30;;;;;;5080642;28;43320;-70
2024/01/03 08:19:33;;;;;;;1.07;1.07;;;17.10;68.30;;;;;;5074765;28;44129;-69
2024/01/03 08:22:01;;;;;;;0.90;0.90;;;17.00;68.20;;;;;;5083083;28;43415;-70
2024/01/03 08:24:29;;;;;;;1.20;1.20;;;17.00;68.30;;;;;;5080414;28;43354;-69
2024/01/03 08:27:01;;;;;;;0.90;0.90;;;17.00;68.50;;;;;;5075830;28;43462;-69
2024/01/03 08:29:30;;;;;;;1.03;1.03;;;17.00;68.40;;;;;;5076614;28;43805;-70
2024/01/03 08:31:58;;;;;;;0.90;0.90;;;17.00;68.50;;;;;;5079610;28;43391;-69
2024/01/03 08:34:26;;;;;;;0.67;0.67;;;17.00;68.60;;;;;;5078165;28;43321;-70
2024/01/03 08:36:54;;;;;;;0.87;0.87;;;17.00;68.70;;;;;;5079700;28;43566;-69
2024/01/03 08:39:23;;;;;;;1.30;1.30;;;16.90;68.70;;;;;;5087252;28;43614;-70
2024/01/03 08:41:53;;;;;;;1.00;0.90;;;16.90;68.80;;;;;;5077020;28;43368;-69
2024/01/03 08:44:23;;;;;;;1.00;1.00;;;16.90;68.80;;;;;;5089784;28;43383;-69
2024/01/03 08:46:51;;;;;;;1.30;1.30;;;17.00;68.60;;;;;;5078564;28;43379;-69
2024/01/03 08:49:19;;;;;;;1.00;0.90;;;17.00;68.30;;;;;;5090301;28;43606;-69
2024/01/03 08:51:48;;;;;;;0.93;0.93;;;17.00;68.40;;;;;;5084445;28;43341;-69
2024/01/03 08:54:16;;;;;;;1.27;1.20;;;17.00;68.40;;;;;;5080566;28;43383;-69
2024/01/03 08:56:44;;;;;;;1.20;1.20;;;17.00;68.60;;;;;;5075095;28;43344;-70
2024/01/03 08:59:12;;;;;;;1.30;1.03;;;17.00;68.50;;;;;;5080367;28;45803;-69
2024/01/03 09:01:41;;;;;;;1.10;1.10;;;17.00;68.50;;;;;;5081233;28;44723;-68
2024/01/03 09:04:09;;;;;;;0.90;0.90;;;17.00;68.60;;;;;;5076601;28;43861;-69
2024/01/03 09:06:38;;;;;;;1.13;1.00;;;16.90;68.60;;;;;;5066032;28;43464;-72
2024/01/03 09:09:07;;;;;;;1.40;1.30;;;16.90;68.80;;;;;;5058482;28;43927;-72
2024/01/03 09:11:36;;;;;;;1.00;1.00;;;16.90;68.80;;;;;;5048824;28;44067;-72
2024/01/03 09:14:04;;;;;;;1.10;1.10;;;16.90;69.00;;;;;;5062723;28;43436;-71
2024/01/03 09:16:32;;;;;;;1.40;1.30;;;16.90;68.80;;;;;;5057843;28;43958;-72
2024/01/03 09:19:02;;;;;;;1.07;1.03;;;17.00;68.50;;;;;;5064938;28;43687;-72
2024/01/03 09:21:33;;;;;;;1.00;1.00;;;17.00;68.40;;;;;;5055229;28;43361;-72
2024/01/03 09:24:04;;;;;;;0.90;0.90;;;17.00;68.50;;;;;;5061135;28;43628;-71
2024/01/03 09:26:32;;;;;;;1.00;1.00;;;17.00;68.60;;;;;;5057970;28;43945;-72
2024/01/03 09:29:00;;;;;;;1.13;1.13;;;16.90;68.70;;;;;;5063572;28;43881;-72
2024/01/03 09:31:30;;;;;;;1.50;1.50;;;16.90;68.60;;;;;;5053319;28;45368;-72
2024/01/03 09:33:58;;;;;;;0.90;0.90;;;16.90;68.60;;;;;;5058951;28;43598;-71
2024/01/03 09:36:28;;;;;;;1.07;1.07;;;16.90;68.70;;;;;;5056424;28;43622;-72
2024/01/03 09:38:56;;;;;;;1.00;1.00;;;16.90;68.80;;;;;;5058230;28;43594;-71
2024/01/03 09:41:24;;;;;;;1.37;1.27;;;16.90;68.80;;;;;;5055502;28;43444;-72
2024/01/03 09:43:54;;;;;;;1.10;1.10;;;16.90;68.90;;;;;;5054003;28;43314;-72
2024/01/03 09:46:23;;;;;;;1.20;1.20;;;16.90;68.80;;;;;;5064978;28;43359;-72
2024/01/03 09:48:51;;;;;;;1.03;1.03;;;16.90;68.80;;;;;;5065670;28;45366;-72
2024/01/03 09:51:20;;;;;;;1.20;1.20;;;16.90;68.90;;;;;;5058933;28;44048;-72
2024/01/03 09:53:51;;;;;;;0.93;0.93;;;16.90;69.00;;;;;;5049184;28;43526;-72
2024/01/03 09:56:19;;;;;;;1.10;1.10;;;16.80;68.90;;;;;;5051470;28;44115;-72
2024/01/03 09:58:47;;;;;;;1.20;1.20;;;16.80;69.00;;;;;;5065210;28;43615;-71
2024/01/03 10:01:15;;;;;;;1.20;1.20;;;16.80;69.00;;;;;;5050824;28;43327;-72
2024/01/03 10:03:44;;;;;;;1.10;1.10;;;16.90;69.00;;;;;;5057084;28;43582;-71
2024/01/03 10:06:13;;;;;;;1.20;1.20;;;17.00;68.70;;;;;;5061202;28;43441;-72
2024/01/03 10:08:59;;;;;;;1.07;1.07;;;17.10;68.40;;;;;;5060337;28;45935;-72
2024/01/03 10:11:28;;;;;;;1.10;1.10;;;17.10;68.00;;;;;;5053568;28;43423;-72
2024/01/03 10:13:57;;;;;;;1.60;1.10;;;17.10;68.10;;;;;;5059373;28;43484;-72
2024/01/03 10:16:25;;;;;;;1.40;1.30;;;17.10;68.30;;;;;;5078066;28;43418;-69
2024/01/03 10:19:10;;;;;;;1.10;1.10;;;17.10;68.20;;;;;;5081573;28;43676;-69
2024/01/03 10:21:40;;;;;;;1.07;1.07;;;17.10;68.30;;;;;;5084710;28;43455;-69
2024/01/03 10:24:11;;;;;;;1.00;1.00;;;17.00;68.30;;;;;;5080704;28;43443;-69
2024/01/03 10:26:39;;;;;;;1.23;1.23;;;17.00;68.50;;;;;;5084480;28;43387;-69
2024/01/03 10:29:10;;;;;;;1.07;1.07;;;17.00;68.70;;;;;;5087975;28;44085;-69
2024/01/03 10:31:38;;;;;;;1.17;1.17;;;16.90;68.80;;;;;;5080994;28;44680;-69
2024/01/03 10:34:06;;;;;;;1.00;1.00;;;16.90;68.70;;;;;;5083315;28;43416;-69
2024/01/03 10:36:35;;;;;;;1.20;1.20;;;16.90;68.80;;;;;;5079489;28;43422;-69
2024/01/03 10:39:04;;;;;;;1.20;1.20;;;16.90;68.80;;;;;;5088585;28;43612;-69
2024/01/03 10:41:33;;;;;;;1.20;1.20;;;16.90;68.90;;;;;;5078532;28;43448;-69
2024/01/03 10:44:01;;;;;;;1.10;1.10;;;16.90;69.10;;;;;;5086309;28;43419;-69
2024/01/03 10:46:29;;;;;;;1.40;1.30;;;16.90;69.00;;;;;;5076527;28;44119;-69
2024/01/03 10:48:57;;;;;;;1.40;1.40;;;16.90;69.00;;;;;;5084608;28;43598;-70
2024/01/03 10:51:26;;;;;;;1.47;1.37;;;17.00;68.90;;;;;;5086535;28;43362;-69
2024/01/03 10:53:58;;;;;;;1.10;1.10;;;17.00;68.50;;;;;;5086512;28;43402;-69
2024/01/03 10:56:26;;;;;;;1.50;1.40;;;17.10;68.40;;;;;;5080631;28;43505;-68
2024/01/03 10:58:55;;;;;;;1.13;1.13;;;17.00;68.50;;;;;;5087784;28;43965;-69
2024/01/03 11:01:26;;;;;;;1.20;1.10;;;17.00;68.60;;;;;;5082992;28;43434;-69
2024/01/03 11:04:01;;;;;;;1.10;1.10;;;17.00;68.70;;;;;;5087824;28;43485;-69
2024/01/03 11:06:32;;;;;;;1.03;1.03;;;17.00;68.70;;;;;;5085716;28;43533;-69
2024/01/03 11:09:02;;;;;;;1.50;1.40;;;17.00;68.80;;;;;;5092465;28;43933;-69
2024/01/03 11:11:33;;;;;;;0.90;0.90;;;17.00;69.00;;;;;;5079784;28;43428;-69
2024/01/03 11:14:04;;;;;;;1.23;1.13;;;17.00;69.80;;;;;;5077615;28;43514;-69
2024/01/03 11:16:36;;;;;;;1.00;1.00;;;16.90;69.10;;;;;;5081767;28;43537;-69
2024/01/03 11:19:05;;;;;;;1.00;1.00;;;16.90;69.10;;;;;;5084064;28;45692;-69
2024/01/03 11:21:44;;;;;;;1.13;1.13;;;16.90;69.10;;;;;;5086143;28;44957;-69
2024/01/03 11:24:42;;;;;;;0.97;0.97;;;16.90;69.10;;;;;;5080035;28;43391;-69
2024/01/03 11:27:19;;;;;;;1.00;1.00;;;16.90;69.20;;;;;;5064990;28;43475;-72
2024/01/03 11:29:54;;;;;;;1.00;1.00;;;16.90;69.30;;;;;;5055804;28;44034;-71
2024/01/03 11:32:36;;;;;;;1.10;1.10;;;16.90;69.30;;;;;;5056373;28;43521;-72
2024/01/03 11:35:09;;;;;;;1.00;1.00;;;16.90;69.40;;;;;;5064138;28;43558;-72
2024/01/03 11:37:39;;;;;;;0.87;0.87;;;16.90;69.30;;;;;;5057630;28;43460;-71
2024/01/03 11:40:08;;;;;;;1.23;1.23;;;17.00;69.70;;;;;;5059402;28;43827;-72
2024/01/03 11:42:38;;;;;;;0.90;0.90;;;17.10;68.90;;;;;;5059741;28;43482;-72
2024/01/03 11:45:09;;;;;;;1.10;1.10;;;17.10;68.90;;;;;;5053833;28;43479;-72
2024/01/03 11:47:39;;;;;;;1.23;1.20;;;17.10;69.10;;;;;;5062359;28;43443;-72
2024/01/03 11:50:08;;;;;;;1.20;1.10;;;17.10;69.10;;;;;;5064186;28;43842;-72
2024/01/03 11:52:37;;;;;;;1.33;1.23;;;17.00;69.70;;;;;;5065941;28;43404;-72
2024/01/03 11:55:10;;;;;;;1.07;1.07;;;17.00;69.00;;;;;;5064296;28;43743;-72
2024/01/03 11:57:41;;;;;;;0.77;0.77;;;17.00;69.10;;;;;;5059995;28;43562;-71
2024/01/03 12:00:12;;;;;;;1.10;1.10;;;17.00;69.30;;;;;;5064332;28;43620;-71
2024/01/03 12:02:50;;;;;;;13.03;1.73;;;17.00;69.30;;;;;;5050912;28;43521;-71
2024/01/03 12:05:20;;;;;;;54.57;6.07;;;17.00;69.50;;;;;;5062851;28;43470;-72
2024/01/03 12:07:48;;;;;;;59.83;4.87;;;17.00;70.20;;;;;;5058016;28;43550;-71
2024/01/03 12:10:19;;;;;;;83.13;7.57;;;17.00;69.90;;;;;;5066416;28;45989;-72
2024/01/03 12:12:48;;;;;;;63.97;5.77;;;17.10;69.50;;;;;;5052122;28;44791;-72
2024/01/03 12:15:24;;;;;;;50.93;4.77;;;17.20;69.30;;;;;;5063057;28;43517;-71
2024/01/03 12:17:58;;;;;;;38.40;4.70;;;17.20;69.20;;;;;;5059147;28;43554;-72
2024/01/03 12:20:27;;;;;;;225.97;13.23;;;17.10;69.20;;;;;;5061750;28;47108;-72
2024/01/03 12:22:55;;;;;;;149.77;11.60;;;17.10;69.40;;;;;;5061639;28;45650;-71
2024/01/03 12:25:26;;;;;;;90.53;9.93;;;17.10;69.10;;;;;;5054131;28;44210;-71
2024/01/03 12:27:56;;;;;;;71.87;8.70;;;17.10;69.40;;;;;;5054906;28;43393;-71
2024/01/03 12:30:25;;;;;;;64.70;8.27;;;17.10;69.90;;;;;;5055561;28;46358;-70
2024/01/03 12:33:06;;;;;;;62.93;7.80;;;17.10;70.50;;;;;;5060826;28;44722;-72
2024/01/03 12:35:39;;;;;;;64.37;8.83;;;17.10;70.60;;;;;;5056300;28;43530;-71
2024/01/03 12:38:07;;;;;;;61.37;7.67;;;17.00;70.40;;;;;;5055883;28;43585;-72
2024/01/03 12:40:36;;;;;;;49.93;6.63;;;17.00;70.20;;;;;;5062327;28;43625;-73
2024/01/03 12:43:04;;;;;;;37.77;6.33;;;17.00;70.70;;;;;;5052332;28;44045;-71
2024/01/03 12:45:34;;;;;;;46.33;6.80;;;17.00;70.90;;;;;;5053378;28;43370;-71
2024/01/03 12:48:02;;;;;;;64.10;7.60;;;17.00;70.20;;;;;;5063988;28;43461;-71
2024/01/03 12:50:30;;;;;;;165.23;12.73;;;17.00;70.20;;;;;;5055644;28;43860;-70
2024/01/03 12:52:58;;;;;;;120.83;13.20;;;17.00;70.50;;;;;;5053040;28;44762;-72
2024/01/03 12:55:26;;;;;;;92.63;11.83;;;17.00;70.60;;;;;;5059706;28;43537;-71